sensor_id;sensor_type;location;lat;lon;timestamp;pressure;altitude;pressure_sealevel;temperature;humidity
39141;BME280;24875;48.436;10.298;2023-06-22T00:01:09;96302.63;;;21.04;nan
39141;BME280;24875;48.436;10.298;2023-06-22T00:03:35;96292.22;;;20.91;nan
39141;BME280;24875;48.436;10.298;2023-06-22T00:06:02;96269.28;;;20.83;nan
39141;BME280;24875;48.436;10.298;2023-06-22T00:08:28;96268.41;;;20.67;nan
39141;BME280;24875;48.436;10.298;2023-06-22T00:10:55;96281.78;;;20.78;nan
39141;BME280;24875;48.436;10.298;2023-06-22T00:13:22;96275.94;;;20.81;nan
39141;BME280;24875;48.436;10.298;2023-06-22T00:15:49;96288.78;;;20.68;nan
39141;BME280;24875;48.436;10.298;2023-06-22T00:18:15;96282.28;;;20.75;nan
39141;BME280;24875;48.436;10.298;2023-06-22T00:20:42;96280.16;;;20.77;nan
39141;BME280;24875;48.436;10.298;2023-06-22T00:23:11;96275.63;;;20.78;nan
39141;BME280;24875;48.436;10.298;2023-06-22T00:25:42;96267.94;;;20.70;nan
39141;BME280;24875;48.436;10.298;2023-06-22T00:28:09;96266.31;;;20.69;nan
39141;BME280;24875;48.436;10.298;2023-06-22T00:30:36;96269.78;;;20.69;nan
39141;BME280;24875;48.436;10.298;2023-06-22T00:33:03;96274.25;;;20.64;nan
39141;BME280;24875;48.436;10.298;2023-06-22T00:35:33;96281.69;;;20.62;nan
39141;BME280;24875;48.436;10.298;2023-06-22T00:38:00;96278.31;;;20.66;nan
39141;BME280;24875;48.436;10.298;2023-06-22T00:40:27;96264.84;;;20.50;nan
39141;BME280;24875;48.436;10.298;2023-06-22T00:42:54;96263.22;;;20.49;nan
39141;BME280;24875;48.436;10.298;2023-06-22T00:45:21;96271.25;;;20.49;nan
39141;BME280;24875;48.436;10.298;2023-06-22T00:47:49;96275.72;;;20.32;nan
39141;BME280;24875;48.436;10.298;2023-06-22T00:50:19;96272.81;;;20.33;nan
39141;BME280;24875;48.436;10.298;2023-06-22T00:52:48;96271.78;;;20.34;nan
39141;BME280;24875;48.436;10.298;2023-06-22T00:55:17;96269.91;;;20.35;nan
39141;BME280;24875;48.436;10.298;2023-06-22T00:57:45;96271.91;;;20.28;nan
39141;BME280;24875;48.436;10.298;2023-06-22T01:00:12;96272.94;;;20.27;nan
39141;BME280;24875;48.436;10.298;2023-06-22T01:02:44;96274.56;;;20.28;nan
39141;BME280;24875;48.436;10.298;2023-06-22T01:05:13;96271.53;;;20.36;nan
39141;BME280;24875;48.436;10.298;2023-06-22T01:07:44;96272.91;;;20.38;nan
39141;BME280;24875;48.436;10.298;2023-06-22T01:10:23;96275.34;;;20.40;nan
39141;BME280;24875;48.436;10.298;2023-06-22T01:12:53;96275.03;;;20.25;nan
39141;BME280;24875;48.436;10.298;2023-06-22T01:15:24;96283.75;;;20.32;nan
39141;BME280;24875;48.436;10.298;2023-06-22T01:17:56;96282.38;;;20.29;nan
39141;BME280;24875;48.436;10.298;2023-06-22T01:20:25;96286.78;;;20.35;nan
39141;BME280;24875;48.436;10.298;2023-06-22T01:23:02;96284.44;;;20.39;nan
39141;BME280;24875;48.436;10.298;2023-06-22T01:25:37;96286.06;;;20.40;nan
39141;BME280;24875;48.436;10.298;2023-06-22T01:28:20;96287.59;;;20.36;nan
39141;BME280;24875;48.436;10.298;2023-06-22T01:30:51;96292.47;;;20.39;nan
39141;BME280;24875;48.436;10.298;2023-06-22T01:33:28;96293.09;;;20.18;nan
39141;BME280;24875;48.436;10.298;2023-06-22T01:35:55;96286.81;;;20.01;nan
39141;BME280;24875;48.436;10.298;2023-06-22T01:38:22;96283.69;;;20.04;nan
39141;BME280;24875;48.436;10.298;2023-06-22T01:40:49;96288.00;;;20.05;nan
39141;BME280;24875;48.436;10.298;2023-06-22T01:43:16;96285.06;;;19.95;nan
39141;BME280;24875;48.436;10.298;2023-06-22T01:45:42;96279.00;;;19.77;nan
39141;BME280;24875;48.436;10.298;2023-06-22T01:48:10;96279.13;;;19.93;nan
39141;BME280;24875;48.436;10.298;2023-06-22T01:50:37;96283.91;;;19.91;nan
39141;BME280;24875;48.436;10.298;2023-06-22T01:53:04;96274.59;;;19.82;nan
39141;BME280;24875;48.436;10.298;2023-06-22T01:55:32;96273.44;;;19.90;nan
39141;BME280;24875;48.436;10.298;2023-06-22T01:57:58;96264.25;;;19.86;nan
39141;BME280;24875;48.436;10.298;2023-06-22T02:00:27;96271.09;;;19.82;nan
39141;BME280;24875;48.436;10.298;2023-06-22T02:02:58;96270.41;;;19.86;nan
39141;BME280;24875;48.436;10.298;2023-06-22T02:05:31;96274.38;;;19.95;nan
39141;BME280;24875;48.436;10.298;2023-06-22T02:08:02;96269.94;;;20.01;nan
39141;BME280;24875;48.436;10.298;2023-06-22T02:10:34;96281.47;;;20.01;nan
39141;BME280;24875;48.436;10.298;2023-06-22T02:13:04;96284.84;;;19.97;nan
39141;BME280;24875;48.436;10.298;2023-06-22T02:15:31;96279.84;;;20.00;nan
39141;BME280;24875;48.436;10.298;2023-06-22T02:17:57;96291.03;;;19.97;nan
39141;BME280;24875;48.436;10.298;2023-06-22T02:20:24;96289.50;;;20.01;nan
39141;BME280;24875;48.436;10.298;2023-06-22T02:22:52;96279.97;;;19.94;nan
39141;BME280;24875;48.436;10.298;2023-06-22T02:25:18;96285.41;;;19.87;nan
39141;BME280;24875;48.436;10.298;2023-06-22T02:27:45;96288.06;;;19.87;nan
39141;BME280;24875;48.436;10.298;2023-06-22T02:30:12;96289.84;;;19.93;nan
39141;BME280;24875;48.436;10.298;2023-06-22T02:32:40;96288.34;;;19.97;nan
39141;BME280;24875;48.436;10.298;2023-06-22T02:35:08;96287.38;;;19.80;nan
39141;BME280;24875;48.436;10.298;2023-06-22T02:37:35;96271.78;;;19.77;nan
39141;BME280;24875;48.436;10.298;2023-06-22T02:40:06;96272.16;;;19.81;nan
39141;BME280;24875;48.436;10.298;2023-06-22T02:42:34;96263.78;;;19.66;nan
39141;BME280;24875;48.436;10.298;2023-06-22T02:45:00;96271.09;;;19.70;nan
39141;BME280;24875;48.436;10.298;2023-06-22T02:47:27;96277.75;;;19.79;nan
39141;BME280;24875;48.436;10.298;2023-06-22T02:49:53;96284.69;;;19.69;nan
39141;BME280;24875;48.436;10.298;2023-06-22T02:52:20;96285.03;;;19.72;nan
39141;BME280;24875;48.436;10.298;2023-06-22T02:54:46;96292.94;;;19.67;nan
39141;BME280;24875;48.436;10.298;2023-06-22T02:57:14;96286.44;;;19.75;nan
39141;BME280;24875;48.436;10.298;2023-06-22T02:59:40;96274.09;;;19.74;nan
39141;BME280;24875;48.436;10.298;2023-06-22T03:02:07;96278.53;;;19.68;nan
39141;BME280;24875;48.436;10.298;2023-06-22T03:04:34;96284.34;;;19.65;nan
39141;BME280;24875;48.436;10.298;2023-06-22T03:07:00;96279.44;;;19.62;nan
39141;BME280;24875;48.436;10.298;2023-06-22T03:09:27;96275.25;;;19.66;nan
39141;BME280;24875;48.436;10.298;2023-06-22T03:11:54;96282.25;;;19.67;nan
39141;BME280;24875;48.436;10.298;2023-06-22T03:14:22;96288.75;;;19.71;nan
39141;BME280;24875;48.436;10.298;2023-06-22T03:16:48;96283.63;;;19.58;nan
39141;BME280;24875;48.436;10.298;2023-06-22T03:19:14;96284.09;;;19.56;nan
39141;BME280;24875;48.436;10.298;2023-06-22T03:21:41;96290.38;;;19.50;nan
39141;BME280;24875;48.436;10.298;2023-06-22T03:24:08;96285.38;;;19.53;nan
39141;BME280;24875;48.436;10.298;2023-06-22T03:26:34;96291.09;;;19.57;nan
39141;BME280;24875;48.436;10.298;2023-06-22T03:29:01;96291.22;;;19.61;nan
39141;BME280;24875;48.436;10.298;2023-06-22T03:31:28;96297.84;;;19.70;nan
39141;BME280;24875;48.436;10.298;2023-06-22T03:33:55;96283.41;;;19.71;nan
39141;BME280;24875;48.436;10.298;2023-06-22T03:36:21;96279.69;;;19.72;nan
39141;BME280;24875;48.436;10.298;2023-06-22T03:38:49;96276.34;;;19.65;nan
39141;BME280;24875;48.436;10.298;2023-06-22T03:41:16;96274.44;;;19.55;nan
39141;BME280;24875;48.436;10.298;2023-06-22T03:43:43;96274.81;;;19.47;nan
39141;BME280;24875;48.436;10.298;2023-06-22T03:46:09;96278.84;;;19.38;nan
39141;BME280;24875;48.436;10.298;2023-06-22T03:48:37;96275.16;;;19.50;nan
39141;BME280;24875;48.436;10.298;2023-06-22T03:51:04;96285.38;;;19.42;nan
39141;BME280;24875;48.436;10.298;2023-06-22T03:53:30;96284.06;;;19.33;nan
39141;BME280;24875;48.436;10.298;2023-06-22T03:55:57;96281.56;;;19.60;nan
39141;BME280;24875;48.436;10.298;2023-06-22T03:58:23;96279.44;;;19.62;nan
39141;BME280;24875;48.436;10.298;2023-06-22T04:00:51;96269.22;;;19.59;nan
39141;BME280;24875;48.436;10.298;2023-06-22T04:03:18;96274.44;;;19.55;nan
39141;BME280;24875;48.436;10.298;2023-06-22T04:05:47;96275.75;;;19.63;nan
39141;BME280;24875;48.436;10.298;2023-06-22T04:08:14;96282.94;;;19.52;nan
39141;BME280;24875;48.436;10.298;2023-06-22T04:10:40;96281.41;;;19.44;nan
39141;BME280;24875;48.436;10.298;2023-06-22T04:13:07;96278.41;;;19.63;nan
39141;BME280;24875;48.436;10.298;2023-06-22T04:15:33;96279.69;;;19.72;nan
39141;BME280;24875;48.436;10.298;2023-06-22T04:18:00;96278.31;;;19.81;nan
39141;BME280;24875;48.436;10.298;2023-06-22T04:20:26;96277.03;;;19.84;nan
39141;BME280;24875;48.436;10.298;2023-06-22T04:22:54;96275.06;;;19.79;nan
39141;BME280;24875;48.436;10.298;2023-06-22T04:25:21;96269.13;;;19.66;nan
39141;BME280;24875;48.436;10.298;2023-06-22T04:27:48;96287.59;;;19.67;nan
39141;BME280;24875;48.436;10.298;2023-06-22T04:30:15;96296.09;;;19.64;nan
39141;BME280;24875;48.436;10.298;2023-06-22T04:32:42;96291.41;;;19.60;nan
39141;BME280;24875;48.436;10.298;2023-06-22T04:35:09;96278.53;;;19.80;nan
39141;BME280;24875;48.436;10.298;2023-06-22T04:37:35;96277.94;;;19.89;nan
39141;BME280;24875;48.436;10.298;2023-06-22T04:40:04;96275.66;;;19.93;nan
39141;BME280;24875;48.436;10.298;2023-06-22T04:42:30;96263.78;;;19.89;nan
39141;BME280;24875;48.436;10.298;2023-06-22T04:44:57;96266.22;;;20.13;nan
39141;BME280;24875;48.436;10.298;2023-06-22T04:47:24;96263.13;;;20.44;nan
39141;BME280;24875;48.436;10.298;2023-06-22T04:49:50;96263.16;;;20.72;nan
39141;BME280;24875;48.436;10.298;2023-06-22T04:52:16;96266.09;;;20.98;nan
39141;BME280;24875;48.436;10.298;2023-06-22T04:54:45;96268.44;;;21.22;nan
39141;BME280;24875;48.436;10.298;2023-06-22T04:57:15;96268.44;;;21.22;nan
39141;BME280;24875;48.436;10.298;2023-06-22T04:59:42;96284.03;;;21.42;nan
39141;BME280;24875;48.436;10.298;2023-06-22T05:02:09;96288.81;;;21.40;nan
39141;BME280;24875;48.436;10.298;2023-06-22T05:04:36;96279.47;;;21.42;nan
39141;BME280;24875;48.436;10.298;2023-06-22T05:07:04;96275.97;;;21.69;nan
39141;BME280;24875;48.436;10.298;2023-06-22T05:09:31;96270.75;;;21.79;nan
39141;BME280;24875;48.436;10.298;2023-06-22T05:11:59;96270.44;;;21.59;nan
39141;BME280;24875;48.436;10.298;2023-06-22T05:14:28;96265.34;;;21.30;nan
39141;BME280;24875;48.436;10.298;2023-06-22T05:16:55;96259.78;;;21.04;nan
39141;BME280;24875;48.436;10.298;2023-06-22T05:19:23;96251.13;;;20.85;nan
39141;BME280;24875;48.436;10.298;2023-06-22T05:21:50;96249.53;;;21.01;nan
39141;BME280;24875;48.436;10.298;2023-06-22T05:24:16;96244.91;;;20.96;nan
39141;BME280;24875;48.436;10.298;2023-06-22T05:26:43;96243.38;;;21.00;nan
39141;BME280;24875;48.436;10.298;2023-06-22T05:29:09;96242.09;;;21.03;nan
39141;BME280;24875;48.436;10.298;2023-06-22T05:31:37;96246.81;;;21.12;nan
39141;BME280;24875;48.436;10.298;2023-06-22T05:34:05;96240.94;;;21.15;nan
39141;BME280;24875;48.436;10.298;2023-06-22T05:36:31;96239.66;;;21.18;nan
39141;BME280;24875;48.436;10.298;2023-06-22T05:38:58;96237.41;;;21.26;nan
39141;BME280;24875;48.436;10.298;2023-06-22T05:41:24;96217.50;;;21.71;nan
39141;BME280;24875;48.436;10.298;2023-06-22T05:43:51;96218.06;;;21.90;nan
39141;BME280;24875;48.436;10.298;2023-06-22T05:46:18;96225.75;;;22.03;nan
39141;BME280;24875;48.436;10.298;2023-06-22T05:48:46;96222.25;;;22.23;nan
39141;BME280;24875;48.436;10.298;2023-06-22T05:51:12;96217.66;;;22.19;nan
39141;BME280;24875;48.436;10.298;2023-06-22T05:53:39;96214.78;;;22.25;nan
39141;BME280;24875;48.436;10.298;2023-06-22T05:56:05;96222.47;;;22.38;nan
39141;BME280;24875;48.436;10.298;2023-06-22T05:58:32;96220.38;;;22.40;nan
39141;BME280;24875;48.436;10.298;2023-06-22T06:00:58;96223.09;;;22.45;nan
39141;BME280;24875;48.436;10.298;2023-06-22T06:03:25;96228.72;;;22.22;nan
39141;BME280;24875;48.436;10.298;2023-06-22T06:05:55;96227.16;;;22.48;nan
39141;BME280;24875;48.436;10.298;2023-06-22T06:08:21;96216.78;;;22.13;nan
39141;BME280;24875;48.436;10.298;2023-06-22T06:10:48;96226.56;;;22.24;nan
39141;BME280;24875;48.436;10.298;2023-06-22T06:13:14;96217.66;;;22.19;nan
39141;BME280;24875;48.436;10.298;2023-06-22T06:15:41;96211.22;;;22.41;nan
39141;BME280;24875;48.436;10.298;2023-06-22T06:18:07;96213.84;;;22.36;nan
39141;BME280;24875;48.436;10.298;2023-06-22T06:20:34;96219.41;;;22.51;nan
39141;BME280;24875;48.436;10.298;2023-06-22T06:23:02;96222.81;;;22.68;nan
39141;BME280;24875;48.436;10.298;2023-06-22T06:25:28;96216.53;;;22.58;nan
39141;BME280;24875;48.436;10.298;2023-06-22T06:27:55;96223.84;;;22.62;nan
39141;BME280;24875;48.436;10.298;2023-06-22T06:30:21;96213.72;;;22.69;nan
39141;BME280;24875;48.436;10.298;2023-06-22T06:32:49;96211.13;;;22.79;nan
39141;BME280;24875;48.436;10.298;2023-06-22T06:35:16;96212.19;;;22.78;nan
39141;BME280;24875;48.436;10.298;2023-06-22T06:37:44;96217.22;;;22.96;nan
39141;BME280;24875;48.436;10.298;2023-06-22T06:40:13;96211.59;;;22.97;nan
39141;BME280;24875;48.436;10.298;2023-06-22T06:42:41;96212.41;;;22.98;nan
39141;BME280;24875;48.436;10.298;2023-06-22T06:45:10;96200.66;;;23.04;nan
39141;BME280;24875;48.436;10.298;2023-06-22T06:47:36;96209.09;;;23.12;nan
39141;BME280;24875;48.436;10.298;2023-06-22T06:50:04;96199.25;;;23.28;nan
39141;BME280;24875;48.436;10.298;2023-06-22T06:52:30;96198.00;;;23.35;nan
39141;BME280;24875;48.436;10.298;2023-06-22T06:54:57;96207.22;;;23.44;nan
39141;BME280;24875;48.436;10.298;2023-06-22T06:57:25;96193.66;;;23.65;nan
39141;BME280;24875;48.436;10.298;2023-06-22T06:59:54;96187.16;;;23.61;nan
39141;BME280;24875;48.436;10.298;2023-06-22T07:02:20;96191.59;;;23.77;nan
39141;BME280;24875;48.436;10.298;2023-06-22T07:04:47;96189.34;;;23.64;nan
39141;BME280;24875;48.436;10.298;2023-06-22T07:07:13;96191.16;;;23.95;nan
39141;BME280;24875;48.436;10.298;2023-06-22T07:09:40;96182.56;;;23.98;nan
39141;BME280;24875;48.436;10.298;2023-06-22T07:12:07;96183.41;;;23.98;nan
39141;BME280;24875;48.436;10.298;2023-06-22T07:14:35;96194.53;;;24.17;nan
39141;BME280;24875;48.436;10.298;2023-06-22T07:17:02;96184.47;;;24.54;nan
39141;BME280;24875;48.436;10.298;2023-06-22T07:19:28;96192.59;;;24.63;nan
39141;BME280;24875;48.436;10.298;2023-06-22T07:21:55;96186.63;;;24.56;nan
39141;BME280;24875;48.436;10.298;2023-06-22T07:24:22;96181.59;;;24.80;nan
39141;BME280;24875;48.436;10.298;2023-06-22T07:26:48;96183.44;;;24.74;nan
39141;BME280;24875;48.436;10.298;2023-06-22T07:29:15;96173.72;;;24.58;nan
39141;BME280;24875;48.436;10.298;2023-06-22T07:31:43;96171.06;;;24.73;nan
39141;BME280;24875;48.436;10.298;2023-06-22T07:34:10;96174.53;;;24.69;nan
39141;BME280;24875;48.436;10.298;2023-06-22T07:36:36;96175.38;;;24.79;nan
39141;BME280;24875;48.436;10.298;2023-06-22T07:39:03;96173.25;;;24.91;nan
39141;BME280;24875;48.436;10.298;2023-06-22T07:41:30;96167.03;;;24.91;nan
39141;BME280;24875;48.436;10.298;2023-06-22T07:43:56;96170.09;;;25.14;nan
39141;BME280;24875;48.436;10.298;2023-06-22T07:46:23;96178.16;;;25.34;nan
39141;BME280;24875;48.436;10.298;2023-06-22T07:48:51;96166.81;;;25.42;nan
39141;BME280;24875;48.436;10.298;2023-06-22T07:51:17;96171.97;;;25.43;nan
39141;BME280;24875;48.436;10.298;2023-06-22T07:53:44;96172.22;;;25.57;nan
39141;BME280;24875;48.436;10.298;2023-06-22T07:56:10;96172.75;;;25.83;nan
39141;BME280;24875;48.436;10.298;2023-06-22T07:58:37;96184.13;;;25.71;nan
39141;BME280;24875;48.436;10.298;2023-06-22T08:01:04;96188.72;;;25.70;nan
39141;BME280;24875;48.436;10.298;2023-06-22T08:03:31;96177.84;;;26.00;nan
39141;BME280;24875;48.436;10.298;2023-06-22T08:05:59;96182.75;;;25.93;nan
39141;BME280;24875;48.436;10.298;2023-06-22T08:08:25;96184.03;;;26.00;nan
39141;BME280;24875;48.436;10.298;2023-06-22T08:10:52;96183.44;;;26.28;nan
39141;BME280;24875;48.436;10.298;2023-06-22T08:13:18;96178.31;;;26.37;nan
39141;BME280;24875;48.436;10.298;2023-06-22T08:15:45;96182.91;;;26.31;nan
39141;BME280;24875;48.436;10.298;2023-06-22T08:18:11;96178.00;;;26.33;nan
39141;BME280;24875;48.436;10.298;2023-06-22T08:20:37;96177.22;;;26.43;nan
39141;BME280;24875;48.436;10.298;2023-06-22T08:23:05;96171.88;;;26.13;nan
39141;BME280;24875;48.436;10.298;2023-06-22T08:25:32;96170.50;;;26.15;nan
39141;BME280;24875;48.436;10.298;2023-06-22T08:27:59;96169.09;;;26.33;nan
39141;BME280;24875;48.436;10.298;2023-06-22T08:30:25;96157.59;;;26.65;nan
39141;BME280;24875;48.436;10.298;2023-06-22T08:32:52;96156.97;;;26.30;nan
39141;BME280;24875;48.436;10.298;2023-06-22T08:35:19;96160.44;;;26.94;nan
39141;BME280;24875;48.436;10.298;2023-06-22T08:37:45;96157.19;;;26.97;nan
39141;BME280;24875;48.436;10.298;2023-06-22T08:40:18;96157.47;;;26.90;nan
39141;BME280;24875;48.436;10.298;2023-06-22T08:42:46;96152.56;;;27.02;nan
39141;BME280;24875;48.436;10.298;2023-06-22T08:45:13;96159.34;;;27.33;nan
39141;BME280;24875;48.436;10.298;2023-06-22T08:47:40;96157.38;;;27.10;nan
39141;BME280;24875;48.436;10.298;2023-06-22T08:50:08;96144.44;;;27.35;nan
39141;BME280;24875;48.436;10.298;2023-06-22T08:52:34;96137.97;;;27.31;nan
39141;BME280;24875;48.436;10.298;2023-06-22T08:55:01;96142.22;;;27.42;nan
39141;BME280;24875;48.436;10.298;2023-06-22T08:57:29;96144.13;;;27.42;nan
39141;BME280;24875;48.436;10.298;2023-06-22T08:59:57;96143.06;;;27.38;nan
39141;BME280;24875;48.436;10.298;2023-06-22T09:02:24;96144.44;;;27.35;nan
39141;BME280;24875;48.436;10.298;2023-06-22T09:04:51;96137.19;;;27.64;nan
39141;BME280;24875;48.436;10.298;2023-06-22T09:07:21;96137.25;;;27.54;nan
39141;BME280;24875;48.436;10.298;2023-06-22T09:09:49;96136.50;;;27.77;nan
39141;BME280;24875;48.436;10.298;2023-06-22T09:12:15;96124.84;;;28.05;nan
39141;BME280;24875;48.436;10.298;2023-06-22T09:14:43;96130.13;;;28.20;nan
39141;BME280;24875;48.436;10.298;2023-06-22T09:17:09;96125.94;;;28.27;nan
39141;BME280;24875;48.436;10.298;2023-06-22T09:19:36;96134.38;;;28.26;nan
39141;BME280;24875;48.436;10.298;2023-06-22T09:22:02;96126.00;;;28.45;nan
39141;BME280;24875;48.436;10.298;2023-06-22T09:24:31;96133.09;;;28.41;nan
39141;BME280;24875;48.436;10.298;2023-06-22T09:26:57;96133.69;;;28.57;nan
39141;BME280;24875;48.436;10.298;2023-06-22T09:29:24;96132.00;;;28.61;nan
39141;BME280;24875;48.436;10.298;2023-06-22T09:31:51;96129.78;;;28.86;nan
39141;BME280;24875;48.436;10.298;2023-06-22T09:34:19;96134.84;;;28.93;nan
39141;BME280;24875;48.436;10.298;2023-06-22T09:36:45;96134.41;;;29.04;nan
39141;BME280;24875;48.436;10.298;2023-06-22T09:39:12;96134.91;;;29.06;nan
39141;BME280;24875;48.436;10.298;2023-06-22T09:41:38;96124.38;;;28.86;nan
39141;BME280;24875;48.436;10.298;2023-06-22T09:44:04;96122.16;;;28.88;nan
39141;BME280;24875;48.436;10.298;2023-06-22T09:46:31;96128.91;;;29.09;nan
39141;BME280;24875;48.436;10.298;2023-06-22T09:48:59;96135.69;;;29.25;nan
39141;BME280;24875;48.436;10.298;2023-06-22T09:51:25;96138.91;;;29.45;nan
39141;BME280;24875;48.436;10.298;2023-06-22T09:53:52;96133.72;;;29.62;nan
39141;BME280;24875;48.436;10.298;2023-06-22T09:56:19;96142.16;;;29.79;nan
39141;BME280;24875;48.436;10.298;2023-06-22T09:58:46;96143.41;;;29.68;nan
39141;BME280;24875;48.436;10.298;2023-06-22T10:01:15;96152.75;;;29.94;nan
39141;BME280;24875;48.436;10.298;2023-06-22T10:03:42;96154.78;;;30.15;nan
39141;BME280;24875;48.436;10.298;2023-06-22T10:06:09;96163.03;;;29.97;nan
39141;BME280;24875;48.436;10.298;2023-06-22T10:08:36;96165.19;;;29.81;nan
39141;BME280;24875;48.436;10.298;2023-06-22T10:11:03;96168.00;;;29.76;nan
39141;BME280;24875;48.436;10.298;2023-06-22T10:13:29;96157.91;;;29.63;nan
39141;BME280;24875;48.436;10.298;2023-06-22T10:15:56;96161.34;;;29.82;nan
39141;BME280;24875;48.436;10.298;2023-06-22T10:18:22;96154.88;;;30.10;nan
39141;BME280;24875;48.436;10.298;2023-06-22T10:20:50;96147.03;;;29.95;nan
39141;BME280;24875;48.436;10.298;2023-06-22T10:23:18;96143.63;;;30.17;nan
39141;BME280;24875;48.436;10.298;2023-06-22T10:25:45;96153.31;;;29.77;nan
39141;BME280;24875;48.436;10.298;2023-06-22T10:28:12;96150.16;;;29.89;nan
39141;BME280;24875;48.436;10.298;2023-06-22T10:30:38;96149.63;;;30.00;nan
39141;BME280;24875;48.436;10.298;2023-06-22T10:33:06;96147.03;;;29.95;nan
39141;BME280;24875;48.436;10.298;2023-06-22T10:35:33;96154.16;;;29.91;nan
39141;BME280;24875;48.436;10.298;2023-06-22T10:37:59;96146.19;;;29.81;nan
39141;BME280;24875;48.436;10.298;2023-06-22T10:40:27;96141.31;;;29.97;nan
39141;BME280;24875;48.436;10.298;2023-06-22T10:42:53;96133.50;;;30.49;nan
39141;BME280;24875;48.436;10.298;2023-06-22T10:45:20;96127.31;;;30.57;nan
39141;BME280;24875;48.436;10.298;2023-06-22T10:47:46;96122.38;;;30.59;nan
39141;BME280;24875;48.436;10.298;2023-06-22T10:50:13;96123.88;;;30.65;nan
39141;BME280;24875;48.436;10.298;2023-06-22T10:52:40;96123.88;;;30.38;nan
39141;BME280;24875;48.436;10.298;2023-06-22T10:55:08;96135.13;;;30.85;nan
39141;BME280;24875;48.436;10.298;2023-06-22T10:57:36;96135.47;;;31.19;nan
39141;BME280;24875;48.436;10.298;2023-06-22T11:00:05;96135.50;;;31.05;nan
39141;BME280;24875;48.436;10.298;2023-06-22T11:02:32;96117.84;;;31.16;nan
39141;BME280;24875;48.436;10.298;2023-06-22T11:04:59;96113.38;;;31.20;nan
39141;BME280;24875;48.436;10.298;2023-06-22T11:07:26;96108.47;;;31.31;nan
39141;BME280;24875;48.436;10.298;2023-06-22T11:09:53;96115.00;;;31.21;nan
39141;BME280;24875;48.436;10.298;2023-06-22T11:12:20;96102.47;;;31.20;nan
39141;BME280;24875;48.436;10.298;2023-06-22T11:14:48;96102.75;;;31.54;nan
39141;BME280;24875;48.436;10.298;2023-06-22T11:17:16;96100.81;;;31.85;nan
39141;BME280;24875;48.436;10.298;2023-06-22T11:19:43;96096.78;;;31.74;nan
39141;BME280;24875;48.436;10.298;2023-06-22T11:22:10;96093.75;;;32.06;nan
39141;BME280;24875;48.436;10.298;2023-06-22T11:24:36;96096.66;;;32.09;nan
39141;BME280;24875;48.436;10.298;2023-06-22T11:27:03;96089.75;;;32.11;nan
39141;BME280;24875;48.436;10.298;2023-06-22T11:29:30;96099.41;;;32.65;nan
39141;BME280;24875;48.436;10.298;2023-06-22T11:31:58;96103.50;;;32.45;nan
39141;BME280;24875;48.436;10.298;2023-06-22T11:34:24;96092.84;;;31.88;nan
39141;BME280;24875;48.436;10.298;2023-06-22T11:36:51;96091.38;;;31.52;nan
39141;BME280;24875;48.436;10.298;2023-06-22T11:39:17;96076.66;;;31.61;nan
39141;BME280;24875;48.436;10.298;2023-06-22T11:41:44;96066.59;;;31.62;nan
39141;BME280;24875;48.436;10.298;2023-06-22T11:44:10;96068.03;;;31.68;nan
39141;BME280;24875;48.436;10.298;2023-06-22T11:46:37;96058.81;;;31.34;nan
39141;BME280;24875;48.436;10.298;2023-06-22T11:49:05;96062.53;;;31.90;nan
39141;BME280;24875;48.436;10.298;2023-06-22T11:51:31;96057.19;;;32.07;nan
39141;BME280;24875;48.436;10.298;2023-06-22T11:53:58;96059.84;;;32.45;nan
39141;BME280;24875;48.436;10.298;2023-06-22T11:56:24;96060.75;;;32.24;nan
39141;BME280;24875;48.436;10.298;2023-06-22T11:58:52;96056.22;;;32.67;nan
39141;BME280;24875;48.436;10.298;2023-06-22T12:01:19;96052.53;;;32.71;nan
39141;BME280;24875;48.436;10.298;2023-06-22T12:03:46;96047.91;;;33.05;nan
39141;BME280;24875;48.436;10.298;2023-06-22T12:06:14;96048.38;;;32.65;nan
39141;BME280;24875;48.436;10.298;2023-06-22T12:08:41;96047.22;;;32.66;nan
39141;BME280;24875;48.436;10.298;2023-06-22T12:11:07;96055.94;;;32.76;nan
39141;BME280;24875;48.436;10.298;2023-06-22T12:13:34;96051.28;;;33.28;nan
39141;BME280;24875;48.436;10.298;2023-06-22T12:16:01;96055.59;;;33.37;nan
39141;BME280;24875;48.436;10.298;2023-06-22T12:18:27;96042.72;;;33.37;nan
39141;BME280;24875;48.436;10.298;2023-06-22T12:20:53;96052.72;;;33.17;nan
39141;BME280;24875;48.436;10.298;2023-06-22T12:23:21;96048.22;;;33.21;nan
39141;BME280;24875;48.436;10.298;2023-06-22T12:25:48;96047.25;;;32.91;nan
39141;BME280;24875;48.436;10.298;2023-06-22T12:28:14;96052.72;;;33.08;nan
39141;BME280;24875;48.436;10.298;2023-06-22T12:30:41;96054.47;;;32.96;nan
39141;BME280;24875;48.436;10.298;2023-06-22T12:33:07;96056.41;;;32.87;nan
39141;BME280;24875;48.436;10.298;2023-06-22T12:35:34;96053.81;;;33.49;nan
39141;BME280;24875;48.436;10.298;2023-06-22T12:38:00;96064.44;;;33.59;nan
39141;BME280;24875;48.436;10.298;2023-06-22T12:40:29;96054.47;;;33.38;nan
39141;BME280;24875;48.436;10.298;2023-06-22T12:42:56;96044.81;;;33.40;nan
39141;BME280;24875;48.436;10.298;2023-06-22T12:45:22;96036.25;;;33.67;nan
39141;BME280;24875;48.436;10.298;2023-06-22T12:47:50;96057.28;;;33.75;nan
39141;BME280;24875;48.436;10.298;2023-06-22T12:50:16;96042.78;;;34.00;nan
39141;BME280;24875;48.436;10.298;2023-06-22T12:52:43;96032.38;;;34.14;nan
39141;BME280;24875;48.436;10.298;2023-06-22T12:55:09;96023.53;;;33.80;nan
39141;BME280;24875;48.436;10.298;2023-06-22T12:57:37;96021.63;;;33.46;nan
39141;BME280;24875;48.436;10.298;2023-06-22T13:00:05;96038.06;;;33.30;nan
39141;BME280;24875;48.436;10.298;2023-06-22T13:02:33;96040.81;;;32.96;nan
39141;BME280;24875;48.436;10.298;2023-06-22T13:04:59;96041.00;;;32.74;nan
39141;BME280;24875;48.436;10.298;2023-06-22T13:07:26;96038.38;;;32.52;nan
39141;BME280;24875;48.436;10.298;2023-06-22T13:09:52;96040.94;;;32.49;nan